Wrightstown, Ohio
Current Conditions -  °F | °C
As of 5:35 AM on Friday 21 Nov 2014 (Local Time) from KUNI Reporting Station
Clear Clear  
Wind Chill: 13°   Ceiling: Unl
Heat Index: 13°   Visibility: 10mi
Dew Point: 10°   Wind: 0mph
Humidity: 86%   Direction: NA
Pressure: 30.38"   Gusts: NA
Location:  39.5152°N, 82.0676°W
Report Text: KUNI 211035Z AUTO 00000KT 10SM CLR M11/M12 A3038 RMK AO2 T11061125
Loading
Personal Weather Stations






























Interactive Weather Map New forecast layout! Learn more

10-Day Weather Forecast

Advertisements
Track Severe Weather on mobile